sensor_id;sensor_type;location;lat;lon;timestamp;P1;durP1;ratioP1;P2;durP2;ratioP2
71042;SDS011;58696;52.134;5.500;2024-03-22T00:02:08;27.90;;;17.38;;
71042;SDS011;58696;52.134;5.500;2024-03-22T00:04:37;29.05;;;17.50;;
71042;SDS011;58696;52.134;5.500;2024-03-22T00:07:05;29.10;;;18.25;;
71042;SDS011;58696;52.134;5.500;2024-03-22T00:09:31;30.98;;;17.83;;
71042;SDS011;58696;52.134;5.500;2024-03-22T00:11:56;29.92;;;17.38;;
71042;SDS011;58696;52.134;5.500;2024-03-22T00:14:24;28.90;;;17.88;;
71042;SDS011;58696;52.134;5.500;2024-03-22T00:16:52;28.42;;;18.25;;
71042;SDS011;58696;52.134;5.500;2024-03-22T00:19:18;27.52;;;17.52;;
71042;SDS011;58696;52.134;5.500;2024-03-22T00:21:44;28.75;;;17.83;;
71042;SDS011;58696;52.134;5.500;2024-03-22T00:24:12;28.40;;;17.42;;
71042;SDS011;58696;52.134;5.500;2024-03-22T00:26:40;25.17;;;17.23;;
71042;SDS011;58696;52.134;5.500;2024-03-22T00:31:34;26.25;;;16.17;;
71042;SDS011;58696;52.134;5.500;2024-03-22T00:34:00;31.75;;;17.63;;
71042;SDS011;58696;52.134;5.500;2024-03-22T00:36:27;27.50;;;17.77;;
71042;SDS011;58696;52.134;5.500;2024-03-22T00:38:53;27.95;;;17.55;;
71042;SDS011;58696;52.134;5.500;2024-03-22T00:41:24;40.05;;;18.13;;
71042;SDS011;58696;52.134;5.500;2024-03-22T00:43:52;32.17;;;18.42;;
71042;SDS011;58696;52.134;5.500;2024-03-22T00:46:18;28.40;;;18.15;;
71042;SDS011;58696;52.134;5.500;2024-03-22T00:48:44;31.33;;;18.38;;
71042;SDS011;58696;52.134;5.500;2024-03-22T00:51:13;30.85;;;19.08;;
71042;SDS011;58696;52.134;5.500;2024-03-22T00:53:41;31.13;;;17.55;;
71042;SDS011;58696;52.134;5.500;2024-03-22T00:56:10;29.10;;;18.48;;
71042;SDS011;58696;52.134;5.500;2024-03-22T00:58:38;31.83;;;17.35;;
71042;SDS011;58696;52.134;5.500;2024-03-22T01:01:08;32.22;;;18.00;;
71042;SDS011;58696;52.134;5.500;2024-03-22T01:03:34;26.77;;;17.92;;
71042;SDS011;58696;52.134;5.500;2024-03-22T01:05:59;33.40;;;18.65;;
71042;SDS011;58696;52.134;5.500;2024-03-22T01:08:27;32.35;;;18.80;;
71042;SDS011;58696;52.134;5.500;2024-03-22T01:10:53;35.25;;;18.45;;
71042;SDS011;58696;52.134;5.500;2024-03-22T01:13:19;36.17;;;18.70;;
71042;SDS011;58696;52.134;5.500;2024-03-22T01:15:45;31.50;;;18.38;;
71042;SDS011;58696;52.134;5.500;2024-03-22T01:18:11;31.17;;;18.67;;
71042;SDS011;58696;52.134;5.500;2024-03-22T01:20:37;33.35;;;19.17;;
71042;SDS011;58696;52.134;5.500;2024-03-22T01:23:03;33.60;;;18.25;;
71042;SDS011;58696;52.134;5.500;2024-03-22T01:25:30;35.35;;;19.35;;
71042;SDS011;58696;52.134;5.500;2024-03-22T01:27:58;33.15;;;18.55;;
71042;SDS011;58696;52.134;5.500;2024-03-22T01:30:24;31.23;;;18.75;;
71042;SDS011;58696;52.134;5.500;2024-03-22T01:32:55;29.35;;;18.58;;
71042;SDS011;58696;52.134;5.500;2024-03-22T01:35:21;37.40;;;20.65;;
71042;SDS011;58696;52.134;5.500;2024-03-22T01:37:47;34.53;;;19.38;;
71042;SDS011;58696;52.134;5.500;2024-03-22T01:40:14;32.88;;;19.10;;
71042;SDS011;58696;52.134;5.500;2024-03-22T01:42:41;30.85;;;19.65;;
71042;SDS011;58696;52.134;5.500;2024-03-22T01:45:09;32.83;;;21.07;;
71042;SDS011;58696;52.134;5.500;2024-03-22T01:47:39;34.88;;;19.45;;
71042;SDS011;58696;52.134;5.500;2024-03-22T01:50:05;32.78;;;20.35;;
71042;SDS011;58696;52.134;5.500;2024-03-22T01:52:32;28.38;;;19.10;;
71042;SDS011;58696;52.134;5.500;2024-03-22T01:54:58;36.17;;;20.98;;
71042;SDS011;58696;52.134;5.500;2024-03-22T01:57:26;35.10;;;21.25;;
71042;SDS011;58696;52.134;5.500;2024-03-22T01:59:55;32.92;;;18.70;;
71042;SDS011;58696;52.134;5.500;2024-03-22T02:02:22;32.88;;;19.58;;
71042;SDS011;58696;52.134;5.500;2024-03-22T02:04:50;33.53;;;20.30;;
71042;SDS011;58696;52.134;5.500;2024-03-22T02:07:19;37.28;;;19.92;;
71042;SDS011;58696;52.134;5.500;2024-03-22T02:09:47;35.50;;;20.05;;
71042;SDS011;58696;52.134;5.500;2024-03-22T02:12:18;34.22;;;19.52;;
71042;SDS011;58696;52.134;5.500;2024-03-22T02:14:44;39.70;;;19.58;;
71042;SDS011;58696;52.134;5.500;2024-03-22T02:17:12;34.80;;;19.48;;
71042;SDS011;58696;52.134;5.500;2024-03-22T02:19:40;42.08;;;19.90;;
71042;SDS011;58696;52.134;5.500;2024-03-22T02:22:08;30.23;;;19.15;;
71042;SDS011;58696;52.134;5.500;2024-03-22T02:24:33;35.38;;;20.20;;
71042;SDS011;58696;52.134;5.500;2024-03-22T02:26:59;37.30;;;19.55;;
71042;SDS011;58696;52.134;5.500;2024-03-22T02:43:42;32.15;;;20.10;;
71042;SDS011;58696;52.134;5.500;2024-03-22T02:46:08;35.88;;;20.38;;
71042;SDS011;58696;52.134;5.500;2024-03-22T02:48:35;30.15;;;18.45;;
71042;SDS011;58696;52.134;5.500;2024-03-22T02:51:07;27.55;;;18.02;;
71042;SDS011;58696;52.134;5.500;2024-03-22T02:53:35;30.90;;;19.25;;
71042;SDS011;58696;52.134;5.500;2024-03-22T02:56:01;31.48;;;19.23;;
71042;SDS011;58696;52.134;5.500;2024-03-22T03:00:55;29.65;;;18.02;;
71042;SDS011;58696;52.134;5.500;2024-03-22T03:03:21;31.42;;;18.42;;
71042;SDS011;58696;52.134;5.500;2024-03-22T03:05:47;33.63;;;19.15;;
71042;SDS011;58696;52.134;5.500;2024-03-22T03:08:12;34.85;;;18.65;;
71042;SDS011;58696;52.134;5.500;2024-03-22T03:10:38;29.77;;;18.20;;
71042;SDS011;58696;52.134;5.500;2024-03-22T03:13:04;32.28;;;20.08;;
71042;SDS011;58696;52.134;5.500;2024-03-22T03:15:31;32.92;;;19.98;;
71042;SDS011;58696;52.134;5.500;2024-03-22T03:17:57;34.00;;;18.77;;
71042;SDS011;58696;52.134;5.500;2024-03-22T03:20:25;37.58;;;20.13;;
71042;SDS011;58696;52.134;5.500;2024-03-22T03:22:52;33.33;;;20.15;;
71042;SDS011;58696;52.134;5.500;2024-03-22T03:25:19;33.00;;;19.60;;
71042;SDS011;58696;52.134;5.500;2024-03-22T03:27:46;32.92;;;19.42;;
71042;SDS011;58696;52.134;5.500;2024-03-22T03:30:12;34.17;;;18.73;;
71042;SDS011;58696;52.134;5.500;2024-03-22T03:32:40;37.40;;;20.58;;
71042;SDS011;58696;52.134;5.500;2024-03-22T03:35:06;33.63;;;19.25;;
71042;SDS011;58696;52.134;5.500;2024-03-22T03:37:32;32.28;;;19.05;;
71042;SDS011;58696;52.134;5.500;2024-03-22T03:39:57;40.33;;;20.00;;
71042;SDS011;58696;52.134;5.500;2024-03-22T03:42:24;34.42;;;19.70;;
71042;SDS011;58696;52.134;5.500;2024-03-22T03:44:53;43.28;;;21.33;;
71042;SDS011;58696;52.134;5.500;2024-03-22T03:47:20;37.20;;;20.08;;
71042;SDS011;58696;52.134;5.500;2024-03-22T03:49:50;35.67;;;19.42;;
71042;SDS011;58696;52.134;5.500;2024-03-22T03:52:20;37.20;;;21.25;;
71042;SDS011;58696;52.134;5.500;2024-03-22T03:54:47;37.17;;;19.52;;
71042;SDS011;58696;52.134;5.500;2024-03-22T03:57:13;33.85;;;18.98;;
71042;SDS011;58696;52.134;5.500;2024-03-22T03:59:39;33.25;;;18.83;;
71042;SDS011;58696;52.134;5.500;2024-03-22T04:02:07;35.88;;;19.88;;
71042;SDS011;58696;52.134;5.500;2024-03-22T04:04:37;36.08;;;18.75;;
71042;SDS011;58696;52.134;5.500;2024-03-22T04:07:04;35.38;;;18.98;;
71042;SDS011;58696;52.134;5.500;2024-03-22T04:09:30;32.42;;;18.38;;
71042;SDS011;58696;52.134;5.500;2024-03-22T04:11:56;38.50;;;18.35;;
71042;SDS011;58696;52.134;5.500;2024-03-22T04:16:52;33.97;;;18.50;;
71042;SDS011;58696;52.134;5.500;2024-03-22T04:19:21;34.33;;;18.15;;
71042;SDS011;58696;52.134;5.500;2024-03-22T04:21:49;31.55;;;19.58;;
71042;SDS011;58696;52.134;5.500;2024-03-22T04:24:15;33.03;;;19.05;;
71042;SDS011;58696;52.134;5.500;2024-03-22T04:26:42;35.85;;;18.88;;
71042;SDS011;58696;52.134;5.500;2024-03-22T04:29:10;34.10;;;18.45;;
71042;SDS011;58696;52.134;5.500;2024-03-22T04:31:36;37.60;;;21.37;;
71042;SDS011;58696;52.134;5.500;2024-03-22T04:34:02;35.47;;;19.38;;
71042;SDS011;58696;52.134;5.500;2024-03-22T04:36:27;35.28;;;19.85;;
71042;SDS011;58696;52.134;5.500;2024-03-22T04:38:56;38.97;;;20.48;;
71042;SDS011;58696;52.134;5.500;2024-03-22T04:41:23;32.17;;;18.45;;
71042;SDS011;58696;52.134;5.500;2024-03-22T04:43:51;38.65;;;21.05;;
71042;SDS011;58696;52.134;5.500;2024-03-22T04:46:18;36.13;;;20.63;;
71042;SDS011;58696;52.134;5.500;2024-03-22T04:48:44;37.60;;;22.15;;
71042;SDS011;58696;52.134;5.500;2024-03-22T04:51:10;34.85;;;19.92;;
71042;SDS011;58696;52.134;5.500;2024-03-22T04:53:38;38.70;;;21.25;;
71042;SDS011;58696;52.134;5.500;2024-03-22T04:56:05;42.17;;;22.83;;
71042;SDS011;58696;52.134;5.500;2024-03-22T04:58:37;38.40;;;21.35;;
71042;SDS011;58696;52.134;5.500;2024-03-22T05:01:05;39.08;;;22.17;;
71042;SDS011;58696;52.134;5.500;2024-03-22T05:03:32;34.80;;;20.80;;
71042;SDS011;58696;52.134;5.500;2024-03-22T05:06:03;35.60;;;20.77;;
71042;SDS011;58696;52.134;5.500;2024-03-22T05:08:29;36.28;;;20.70;;
71042;SDS011;58696;52.134;5.500;2024-03-22T05:10:55;35.97;;;21.52;;
71042;SDS011;58696;52.134;5.500;2024-03-22T05:13:21;39.88;;;21.42;;
71042;SDS011;58696;52.134;5.500;2024-03-22T05:15:51;35.63;;;21.52;;
71042;SDS011;58696;52.134;5.500;2024-03-22T05:18:19;33.65;;;20.63;;
71042;SDS011;58696;52.134;5.500;2024-03-22T05:20:45;36.40;;;21.65;;
71042;SDS011;58696;52.134;5.500;2024-03-22T05:23:10;38.20;;;20.15;;
71042;SDS011;58696;52.134;5.500;2024-03-22T05:25:36;34.03;;;20.83;;
71042;SDS011;58696;52.134;5.500;2024-03-22T05:28:02;36.35;;;20.58;;
71042;SDS011;58696;52.134;5.500;2024-03-22T05:30:30;39.60;;;20.77;;
71042;SDS011;58696;52.134;5.500;2024-03-22T05:32:58;34.97;;;20.38;;
71042;SDS011;58696;52.134;5.500;2024-03-22T05:37:52;33.33;;;20.27;;
71042;SDS011;58696;52.134;5.500;2024-03-22T05:40:20;30.07;;;19.33;;
71042;SDS011;58696;52.134;5.500;2024-03-22T05:42:48;31.85;;;20.38;;
71042;SDS011;58696;52.134;5.500;2024-03-22T05:45:14;35.35;;;20.70;;
71042;SDS011;58696;52.134;5.500;2024-03-22T05:47:42;33.53;;;20.30;;
71042;SDS011;58696;52.134;5.500;2024-03-22T05:50:10;31.75;;;19.35;;
71042;SDS011;58696;52.134;5.500;2024-03-22T05:52:36;33.72;;;19.73;;
71042;SDS011;58696;52.134;5.500;2024-03-22T05:55:06;32.00;;;19.38;;
71042;SDS011;58696;52.134;5.500;2024-03-22T05:57:32;31.83;;;19.70;;
71042;SDS011;58696;52.134;5.500;2024-03-22T05:59:58;34.92;;;19.73;;
71042;SDS011;58696;52.134;5.500;2024-03-22T06:02:24;36.10;;;19.13;;
71042;SDS011;58696;52.134;5.500;2024-03-22T06:04:52;37.83;;;19.33;;
71042;SDS011;58696;52.134;5.500;2024-03-22T06:07:18;31.23;;;18.85;;
71042;SDS011;58696;52.134;5.500;2024-03-22T06:09:44;30.17;;;17.45;;
71042;SDS011;58696;52.134;5.500;2024-03-22T06:12:13;27.95;;;18.50;;
71042;SDS011;58696;52.134;5.500;2024-03-22T06:14:43;31.35;;;18.85;;
71042;SDS011;58696;52.134;5.500;2024-03-22T06:17:12;32.58;;;18.65;;
71042;SDS011;58696;52.134;5.500;2024-03-22T06:19:38;31.60;;;19.02;;
71042;SDS011;58696;52.134;5.500;2024-03-22T06:22:04;35.10;;;18.85;;
71042;SDS011;58696;52.134;5.500;2024-03-22T06:24:32;29.27;;;18.80;;
71042;SDS011;58696;52.134;5.500;2024-03-22T06:26:58;29.63;;;19.45;;
71042;SDS011;58696;52.134;5.500;2024-03-22T06:29:29;33.00;;;19.30;;
71042;SDS011;58696;52.134;5.500;2024-03-22T06:31:55;31.08;;;17.90;;
71042;SDS011;58696;52.134;5.500;2024-03-22T06:34:21;32.95;;;19.52;;
71042;SDS011;58696;52.134;5.500;2024-03-22T06:36:46;31.55;;;19.48;;
71042;SDS011;58696;52.134;5.500;2024-03-22T06:39:12;26.58;;;18.30;;
71042;SDS011;58696;52.134;5.500;2024-03-22T06:41:41;30.98;;;19.17;;
71042;SDS011;58696;52.134;5.500;2024-03-22T06:46:43;28.35;;;16.88;;
71042;SDS011;58696;52.134;5.500;2024-03-22T06:49:08;27.40;;;16.48;;
71042;SDS011;58696;52.134;5.500;2024-03-22T06:51:36;26.23;;;16.55;;
71042;SDS011;58696;52.134;5.500;2024-03-22T06:54:02;28.10;;;16.20;;
71042;SDS011;58696;52.134;5.500;2024-03-22T06:56:28;25.15;;;16.52;;
71042;SDS011;58696;52.134;5.500;2024-03-22T06:58:53;32.05;;;16.05;;
71042;SDS011;58696;52.134;5.500;2024-03-22T07:01:19;24.95;;;14.80;;
71042;SDS011;58696;52.134;5.500;2024-03-22T07:03:48;26.30;;;15.63;;
71042;SDS011;58696;52.134;5.500;2024-03-22T07:06:14;21.77;;;14.65;;
71042;SDS011;58696;52.134;5.500;2024-03-22T07:08:43;24.17;;;14.20;;
71042;SDS011;58696;52.134;5.500;2024-03-22T07:11:11;24.60;;;14.75;;
71042;SDS011;58696;52.134;5.500;2024-03-22T07:13:37;21.65;;;14.20;;
71042;SDS011;58696;52.134;5.500;2024-03-22T07:16:03;29.15;;;15.32;;
71042;SDS011;58696;52.134;5.500;2024-03-22T07:18:30;23.63;;;14.35;;
71042;SDS011;58696;52.134;5.500;2024-03-22T07:20:58;26.10;;;14.05;;
71042;SDS011;58696;52.134;5.500;2024-03-22T07:23:27;22.55;;;15.02;;
71042;SDS011;58696;52.134;5.500;2024-03-22T07:25:53;22.58;;;14.68;;
71042;SDS011;58696;52.134;5.500;2024-03-22T07:28:19;22.33;;;13.75;;
71042;SDS011;58696;52.134;5.500;2024-03-22T07:30:46;23.58;;;14.70;;
71042;SDS011;58696;52.134;5.500;2024-03-22T07:33:13;21.35;;;14.93;;
71042;SDS011;58696;52.134;5.500;2024-03-22T07:35:43;26.80;;;13.75;;
71042;SDS011;58696;52.134;5.500;2024-03-22T07:38:12;18.45;;;12.68;;
71042;SDS011;58696;52.134;5.500;2024-03-22T07:40:40;22.42;;;13.50;;
71042;SDS011;58696;52.134;5.500;2024-03-22T07:45:37;21.98;;;11.80;;
71042;SDS011;58696;52.134;5.500;2024-03-22T07:48:05;19.83;;;11.73;;
71042;SDS011;58696;52.134;5.500;2024-03-22T07:50:31;26.10;;;12.40;;
71042;SDS011;58696;52.134;5.500;2024-03-22T07:53:01;20.42;;;13.70;;
71042;SDS011;58696;52.134;5.500;2024-03-22T07:57:52;23.27;;;11.45;;
71042;SDS011;58696;52.134;5.500;2024-03-22T08:00:18;29.55;;;14.20;;
71042;SDS011;58696;52.134;5.500;2024-03-22T08:02:47;24.45;;;13.32;;
71042;SDS011;58696;52.134;5.500;2024-03-22T08:05:19;24.33;;;12.73;;
71042;SDS011;58696;52.134;5.500;2024-03-22T08:07:45;26.23;;;15.10;;
71042;SDS011;58696;52.134;5.500;2024-03-22T08:10:11;26.92;;;13.90;;
71042;SDS011;58696;52.134;5.500;2024-03-22T08:12:39;23.42;;;13.48;;
71042;SDS011;58696;52.134;5.500;2024-03-22T08:15:07;25.27;;;14.40;;
71042;SDS011;58696;52.134;5.500;2024-03-22T08:20:06;25.27;;;14.20;;
71042;SDS011;58696;52.134;5.500;2024-03-22T08:22:32;24.83;;;14.20;;
71042;SDS011;58696;52.134;5.500;2024-03-22T08:24:58;22.83;;;13.95;;
71042;SDS011;58696;52.134;5.500;2024-03-22T08:27:23;26.75;;;14.25;;
71042;SDS011;58696;52.134;5.500;2024-03-22T08:29:50;24.52;;;14.45;;
71042;SDS011;58696;52.134;5.500;2024-03-22T08:32:16;22.80;;;13.73;;
71042;SDS011;58696;52.134;5.500;2024-03-22T08:37:11;26.60;;;13.00;;
71042;SDS011;58696;52.134;5.500;2024-03-22T08:39:41;19.98;;;12.73;;
71042;SDS011;58696;52.134;5.500;2024-03-22T08:42:09;22.80;;;13.10;;
71042;SDS011;58696;52.134;5.500;2024-03-22T08:44:35;27.10;;;14.00;;
71042;SDS011;58696;52.134;5.500;2024-03-22T08:47:02;22.35;;;12.57;;
71042;SDS011;58696;52.134;5.500;2024-03-22T08:49:28;28.85;;;12.88;;
71042;SDS011;58696;52.134;5.500;2024-03-22T08:51:54;24.23;;;12.38;;
71042;SDS011;58696;52.134;5.500;2024-03-22T08:54:19;17.73;;;11.43;;
71042;SDS011;58696;52.134;5.500;2024-03-22T08:56:50;23.85;;;12.05;;
71042;SDS011;58696;52.134;5.500;2024-03-22T08:59:18;22.08;;;11.30;;
71042;SDS011;58696;52.134;5.500;2024-03-22T09:01:44;23.20;;;12.82;;
71042;SDS011;58696;52.134;5.500;2024-03-22T09:04:10;21.65;;;11.82;;
71042;SDS011;58696;52.134;5.500;2024-03-22T09:06:36;23.65;;;11.57;;
71042;SDS011;58696;52.134;5.500;2024-03-22T09:09:04;22.85;;;11.10;;
71042;SDS011;58696;52.134;5.500;2024-03-22T09:11:30;18.60;;;10.07;;
71042;SDS011;58696;52.134;5.500;2024-03-22T09:13:57;15.38;;;9.60;;
71042;SDS011;58696;52.134;5.500;2024-03-22T09:18:53;14.73;;;8.25;;
71042;SDS011;58696;52.134;5.500;2024-03-22T09:23:47;16.77;;;8.60;;
71042;SDS011;58696;52.134;5.500;2024-03-22T09:26:15;13.60;;;7.78;;
71042;SDS011;58696;52.134;5.500;2024-03-22T09:28:45;13.73;;;8.65;;
71042;SDS011;58696;52.134;5.500;2024-03-22T09:31:14;16.77;;;8.57;;
71042;SDS011;58696;52.134;5.500;2024-03-22T09:33:46;13.10;;;8.18;;
71042;SDS011;58696;52.134;5.500;2024-03-22T09:36:17;16.63;;;8.82;;
71042;SDS011;58696;52.134;5.500;2024-03-22T09:38:42;14.82;;;7.93;;
71042;SDS011;58696;52.134;5.500;2024-03-22T09:41:08;13.57;;;8.68;;
71042;SDS011;58696;52.134;5.500;2024-03-22T09:43:34;14.48;;;8.10;;
71042;SDS011;58696;52.134;5.500;2024-03-22T09:46:01;18.85;;;9.27;;
71042;SDS011;58696;52.134;5.500;2024-03-22T09:48:27;13.63;;;8.68;;
71042;SDS011;58696;52.134;5.500;2024-03-22T09:50:57;15.35;;;7.88;;
71042;SDS011;58696;52.134;5.500;2024-03-22T09:53:25;15.23;;;8.40;;
71042;SDS011;58696;52.134;5.500;2024-03-22T09:55:52;13.15;;;8.45;;
71042;SDS011;58696;52.134;5.500;2024-03-22T09:58:23;10.85;;;7.68;;
71042;SDS011;58696;52.134;5.500;2024-03-22T10:00:53;13.10;;;7.03;;
71042;SDS011;58696;52.134;5.500;2024-03-22T10:05:50;10.98;;;6.38;;
71042;SDS011;58696;52.134;5.500;2024-03-22T10:08:19;8.50;;;5.57;;
71042;SDS011;58696;52.134;5.500;2024-03-22T10:10:50;11.40;;;5.95;;
71042;SDS011;58696;52.134;5.500;2024-03-22T10:13:16;9.65;;;5.55;;
71042;SDS011;58696;52.134;5.500;2024-03-22T10:15:41;10.45;;;5.75;;
71042;SDS011;58696;52.134;5.500;2024-03-22T10:18:09;6.32;;;4.35;;
71042;SDS011;58696;52.134;5.500;2024-03-22T10:20:35;7.00;;;4.80;;
71042;SDS011;58696;52.134;5.500;2024-03-22T10:25:29;9.13;;;4.55;;
71042;SDS011;58696;52.134;5.500;2024-03-22T10:27:55;8.57;;;4.95;;
71042;SDS011;58696;52.134;5.500;2024-03-22T10:30:22;5.72;;;4.50;;
71042;SDS011;58696;52.134;5.500;2024-03-22T10:32:53;8.70;;;4.18;;
71042;SDS011;58696;52.134;5.500;2024-03-22T10:35:22;7.78;;;4.40;;
71042;SDS011;58696;52.134;5.500;2024-03-22T10:37:49;6.63;;;4.22;;
71042;SDS011;58696;52.134;5.500;2024-03-22T10:40:16;6.28;;;4.15;;
71042;SDS011;58696;52.134;5.500;2024-03-22T10:42:43;4.97;;;3.85;;
71042;SDS011;58696;52.134;5.500;2024-03-22T10:45:10;5.35;;;4.30;;
71042;SDS011;58696;52.134;5.500;2024-03-22T10:47:39;7.22;;;4.00;;
71042;SDS011;58696;52.134;5.500;2024-03-22T10:50:08;9.18;;;4.22;;
71042;SDS011;58696;52.134;5.500;2024-03-22T10:55:06;7.30;;;4.20;;
71042;SDS011;58696;52.134;5.500;2024-03-22T10:57:39;8.43;;;4.38;;
71042;SDS011;58696;52.134;5.500;2024-03-22T11:00:10;6.43;;;4.38;;
71042;SDS011;58696;52.134;5.500;2024-03-22T11:02:37;6.57;;;4.53;;
71042;SDS011;58696;52.134;5.500;2024-03-22T11:05:04;7.95;;;4.80;;
71042;SDS011;58696;52.134;5.500;2024-03-22T11:07:32;7.60;;;4.45;;
71042;SDS011;58696;52.134;5.500;2024-03-22T11:10:00;9.02;;;5.05;;
71042;SDS011;58696;52.134;5.500;2024-03-22T11:12:29;6.93;;;4.57;;
71042;SDS011;58696;52.134;5.500;2024-03-22T11:14:58;6.13;;;4.80;;
71042;SDS011;58696;52.134;5.500;2024-03-22T11:17:28;6.88;;;4.85;;
71042;SDS011;58696;52.134;5.500;2024-03-22T11:19:54;6.43;;;4.90;;
71042;SDS011;58696;52.134;5.500;2024-03-22T11:22:22;7.75;;;4.65;;
71042;SDS011;58696;52.134;5.500;2024-03-22T11:24:51;7.47;;;4.43;;
71042;SDS011;58696;52.134;5.500;2024-03-22T11:27:20;6.88;;;4.72;;
71042;SDS011;58696;52.134;5.500;2024-03-22T11:29:46;7.82;;;4.70;;
71042;SDS011;58696;52.134;5.500;2024-03-22T11:32:12;6.93;;;4.50;;
71042;SDS011;58696;52.134;5.500;2024-03-22T11:34:40;7.95;;;5.00;;
71042;SDS011;58696;52.134;5.500;2024-03-22T11:37:06;8.88;;;4.68;;
71042;SDS011;58696;52.134;5.500;2024-03-22T11:39:35;6.35;;;4.10;;
71042;SDS011;58696;52.134;5.500;2024-03-22T11:42:04;6.47;;;4.10;;
71042;SDS011;58696;52.134;5.500;2024-03-22T11:44:35;4.50;;;3.75;;
71042;SDS011;58696;52.134;5.500;2024-03-22T11:47:02;5.30;;;4.03;;
71042;SDS011;58696;52.134;5.500;2024-03-22T11:49:31;3.58;;;3.28;;
71042;SDS011;58696;52.134;5.500;2024-03-22T11:51:58;3.88;;;3.25;;
71042;SDS011;58696;52.134;5.500;2024-03-22T11:54:28;9.50;;;3.50;;
71042;SDS011;58696;52.134;5.500;2024-03-22T11:59:25;5.30;;;3.60;;
71042;SDS011;58696;52.134;5.500;2024-03-22T12:01:54;4.38;;;3.55;;
71042;SDS011;58696;52.134;5.500;2024-03-22T12:04:19;5.05;;;2.88;;
71042;SDS011;58696;52.134;5.500;2024-03-22T12:06:47;3.75;;;2.40;;
71042;SDS011;58696;52.134;5.500;2024-03-22T12:09:18;4.00;;;2.45;;
71042;SDS011;58696;52.134;5.500;2024-03-22T12:11:45;4.10;;;2.50;;
71042;SDS011;58696;52.134;5.500;2024-03-22T12:14:15;3.92;;;2.60;;
71042;SDS011;58696;52.134;5.500;2024-03-22T12:16:43;2.55;;;2.35;;
71042;SDS011;58696;52.134;5.500;2024-03-22T12:19:11;2.92;;;2.35;;
71042;SDS011;58696;52.134;5.500;2024-03-22T12:24:05;6.07;;;2.30;;
71042;SDS011;58696;52.134;5.500;2024-03-22T12:26:31;2.10;;;1.92;;
71042;SDS011;58696;52.134;5.500;2024-03-22T12:28:57;2.20;;;2.00;;
71042;SDS011;58696;52.134;5.500;2024-03-22T12:31:23;3.60;;;2.30;;
71042;SDS011;58696;52.134;5.500;2024-03-22T12:33:52;2.47;;;2.10;;
71042;SDS011;58696;52.134;5.500;2024-03-22T12:36:18;3.67;;;2.30;;
71042;SDS011;58696;52.134;5.500;2024-03-22T12:41:12;1.90;;;1.80;;
71042;SDS011;58696;52.134;5.500;2024-03-22T12:43:39;3.20;;;2.50;;
71042;SDS011;58696;52.134;5.500;2024-03-22T12:46:08;2.67;;;2.47;;
71042;SDS011;58696;52.134;5.500;2024-03-22T12:48:34;3.22;;;2.75;;
71042;SDS011;58696;52.134;5.500;2024-03-22T12:51:02;9.20;;;2.65;;
71042;SDS011;58696;52.134;5.500;2024-03-22T12:53:31;4.18;;;3.03;;
71042;SDS011;58696;52.134;5.500;2024-03-22T12:55:59;5.10;;;3.20;;
71042;SDS011;58696;52.134;5.500;2024-03-22T12:58:24;5.22;;;3.60;;
71042;SDS011;58696;52.134;5.500;2024-03-22T13:00:50;7.40;;;4.00;;
71042;SDS011;58696;52.134;5.500;2024-03-22T13:03:16;6.82;;;4.57;;
71042;SDS011;58696;52.134;5.500;2024-03-22T13:05:42;7.32;;;4.50;;
71042;SDS011;58696;52.134;5.500;2024-03-22T13:08:08;11.25;;;4.93;;
71042;SDS011;58696;52.134;5.500;2024-03-22T13:10:33;9.25;;;4.63;;
71042;SDS011;58696;52.134;5.500;2024-03-22T13:13:01;7.82;;;4.53;;
71042;SDS011;58696;52.134;5.500;2024-03-22T13:15:29;6.17;;;4.30;;
71042;SDS011;58696;52.134;5.500;2024-03-22T13:17:56;9.27;;;4.57;;
71042;SDS011;58696;52.134;5.500;2024-03-22T13:20:22;7.22;;;4.30;;
71042;SDS011;58696;52.134;5.500;2024-03-22T13:22:50;7.03;;;4.30;;
71042;SDS011;58696;52.134;5.500;2024-03-22T13:25:20;7.00;;;4.50;;
71042;SDS011;58696;52.134;5.500;2024-03-22T13:27:46;6.07;;;3.97;;
71042;SDS011;58696;52.134;5.500;2024-03-22T13:30:14;8.68;;;4.15;;
71042;SDS011;58696;52.134;5.500;2024-03-22T13:32:41;8.00;;;4.20;;
71042;SDS011;58696;52.134;5.500;2024-03-22T13:35:13;7.72;;;4.40;;
71042;SDS011;58696;52.134;5.500;2024-03-22T13:37:41;7.18;;;4.45;;
71042;SDS011;58696;52.134;5.500;2024-03-22T13:40:07;6.47;;;4.93;;
71042;SDS011;58696;52.134;5.500;2024-03-22T13:42:34;9.52;;;4.20;;
71042;SDS011;58696;52.134;5.500;2024-03-22T13:44:59;8.35;;;4.65;;
71042;SDS011;58696;52.134;5.500;2024-03-22T13:47:26;7.18;;;4.50;;
71042;SDS011;58696;52.134;5.500;2024-03-22T13:49:55;11.23;;;4.75;;
71042;SDS011;58696;52.134;5.500;2024-03-22T13:57:16;8.80;;;4.25;;
71042;SDS011;58696;52.134;5.500;2024-03-22T13:59:42;8.02;;;4.10;;
71042;SDS011;58696;52.134;5.500;2024-03-22T14:02:12;6.18;;;4.55;;
71042;SDS011;58696;52.134;5.500;2024-03-22T14:04:38;7.88;;;4.55;;
71042;SDS011;58696;52.134;5.500;2024-03-22T14:07:03;9.57;;;4.82;;
71042;SDS011;58696;52.134;5.500;2024-03-22T14:09:33;6.85;;;4.47;;
71042;SDS011;58696;52.134;5.500;2024-03-22T14:11:59;9.13;;;4.88;;
71042;SDS011;58696;52.134;5.500;2024-03-22T14:14:27;10.25;;;5.03;;
71042;SDS011;58696;52.134;5.500;2024-03-22T14:16:56;9.18;;;5.47;;
71042;SDS011;58696;52.134;5.500;2024-03-22T14:19:21;10.57;;;5.18;;
71042;SDS011;58696;52.134;5.500;2024-03-22T14:21:47;10.05;;;5.78;;
71042;SDS011;58696;52.134;5.500;2024-03-22T14:24:15;8.85;;;5.82;;
71042;SDS011;58696;52.134;5.500;2024-03-22T14:26:44;11.55;;;5.55;;
71042;SDS011;58696;52.134;5.500;2024-03-22T14:29:12;12.68;;;5.78;;
71042;SDS011;58696;52.134;5.500;2024-03-22T14:31:40;8.25;;;5.15;;
71042;SDS011;58696;52.134;5.500;2024-03-22T14:34:07;10.60;;;5.68;;
71042;SDS011;58696;52.134;5.500;2024-03-22T14:36:36;18.25;;;6.07;;
71042;SDS011;58696;52.134;5.500;2024-03-22T14:39:02;15.50;;;5.93;;
71042;SDS011;58696;52.134;5.500;2024-03-22T14:41:33;11.00;;;5.60;;
71042;SDS011;58696;52.134;5.500;2024-03-22T14:44:05;12.10;;;6.05;;
71042;SDS011;58696;52.134;5.500;2024-03-22T14:46:30;13.68;;;6.05;;
71042;SDS011;58696;52.134;5.500;2024-03-22T14:48:59;14.80;;;5.82;;
71042;SDS011;58696;52.134;5.500;2024-03-22T14:51:30;14.00;;;5.65;;
71042;SDS011;58696;52.134;5.500;2024-03-22T14:53:58;12.13;;;5.95;;
71042;SDS011;58696;52.134;5.500;2024-03-22T14:56:23;12.27;;;5.68;;
71042;SDS011;58696;52.134;5.500;2024-03-22T14:58:49;12.07;;;5.78;;
71042;SDS011;58696;52.134;5.500;2024-03-22T15:01:17;10.80;;;5.85;;
71042;SDS011;58696;52.134;5.500;2024-03-22T15:03:45;12.65;;;5.60;;
71042;SDS011;58696;52.134;5.500;2024-03-22T15:06:13;7.20;;;4.85;;
71042;SDS011;58696;52.134;5.500;2024-03-22T15:08:41;13.02;;;5.28;;
71042;SDS011;58696;52.134;5.500;2024-03-22T15:11:12;18.65;;;6.22;;
71042;SDS011;58696;52.134;5.500;2024-03-22T15:13:37;16.33;;;4.97;;
71042;SDS011;58696;52.134;5.500;2024-03-22T15:16:04;9.57;;;4.97;;
71042;SDS011;58696;52.134;5.500;2024-03-22T15:18:30;7.53;;;5.05;;
71042;SDS011;58696;52.134;5.500;2024-03-22T15:20:55;10.23;;;5.05;;
71042;SDS011;58696;52.134;5.500;2024-03-22T15:25:51;13.90;;;4.80;;
71042;SDS011;58696;52.134;5.500;2024-03-22T15:28:17;13.38;;;5.05;;
71042;SDS011;58696;52.134;5.500;2024-03-22T15:33:12;11.30;;;4.57;;
71042;SDS011;58696;52.134;5.500;2024-03-22T15:35:41;10.13;;;4.30;;
71042;SDS011;58696;52.134;5.500;2024-03-22T15:38:13;9.90;;;4.57;;